Soleil Weather Down

Unfortunately, due to a number of different issues, the weather site is temporarily down. Until and if, I am able to get these issues resolved I have provided the link to the nearby Metar stations at local airports. Thank you for your underatanding.

Nearby METAR Reports

 

KCNI - Canton/Cherokee, Georgia, USA
Distance from station: ENE 6mi, 10km
Updated: Sat, 16-Dec-2017 8:55pm EST
Clear
Clear
 Wind from calm
Wind: Calm
Temperature: 39°F , 4°C
Dew Point: 32°F , 0°C
Humidity: 75%
Barometer: 30.28 inHg , 1025.4 hPa
Clouds: Clear
Visibility: 10 miles , 16 km
2017/12/17 01:55 KCNI 170155Z AUTO 00000KT 10SM CLR 04/00 A3028 RMK AO2
KRYY - Marietta Mccolum, Georgia, USA
Distance from station: SSW 18mi, 29km
Updated: Sat, 16-Dec-2017 8:48pm EST
Clear
Clear
 Wind from calm
Wind: Calm
Temperature: 36°F , 2°C
Dew Point: 28°F , -2°C
Humidity: 75%
Barometer: 30.27 inHg , 1025.1 hPa
Clouds: Clear
Visibility: 10 miles , 16 km
2017/12/17 01:48 KRYY 170148Z 00000KT 10SM CLR 02/M02 A3027 RMK AO2 SLP973 T00171022
KVPC - Cartersville, Georgia, USA
Distance from station: WSW 22mi, 35km
Updated: Sat, 16-Dec-2017 8:53pm EST
Clear
Clear
 Wind from calm
Wind: Calm
Temperature: 30°F , -1°C
Dew Point: 28°F , -2°C
Humidity: 93%
Barometer: 30.28 inHg , 1025.4 hPa
Clouds: Clear
Visibility: 10 miles , 16 km
2017/12/17 01:53 KVPC 170153Z AUTO 00000KT 10SM CLR M01/M02 A3028 RMK AO2 SLP257 T10111022
 
KMGE - Dobbins Afb/Mari, Georgia, USA
Distance from station: S 24mi, 39km
Updated: Sat, 16-Dec-2017 8:56pm EST
Partly cloudy
Partly cloudy
 Wind from calm
Wind: Calm
Temperature: 36°F , 2°C
Dew Point: 27°F , -3°C
Humidity: 70%
Barometer: 30.25 inHg , 1024.4 hPa
Clouds: Partly cloudy
Visibility: 10 miles , 16 km
Cloud details: Partly cloudy 25000 ft
2017/12/17 01:56 KMGE 170156Z 00000KT 10SM SCT250 02/M03 A3025 RMK AO2A SLP254 T00191026 $
KPDK - Peachtree/Dekalb, Georgia, USA
Distance from station: SSE 29mi, 47km
Updated: Sat, 16-Dec-2017 8:53pm EST
Clear
Clear
 Wind from calm
Wind: Calm
Temperature: 30°F , -1°C
Dew Point: 27°F , -3°C
Humidity: 86%
Barometer: 30.25 inHg , 1024.4 hPa
Clouds: Clear
Visibility: 10 miles , 16 km
2017/12/17 01:53 KPDK 170153Z 00000KT 10SM CLR M01/M03 A3025 RMK AO2 SLP263 T10061033
KFTY - Atlanta/Fulton, Georgia, USA
Distance from station: S 34mi, 54km
Updated: Sat, 16-Dec-2017 8:53pm EST
Clear
Clear
 Wind from calm
Wind: Calm
Temperature: 34°F , 1°C
Dew Point: 30°F , -1°C
Humidity: 87%
Barometer: 30.27 inHg , 1025.1 hPa
Clouds: Clear
Visibility: 10 miles , 16 km
2017/12/17 01:53 KFTY 170153Z 00000KT 10SM CLR 01/M01 A3027 RMK AO2 SLP254 T00111006
 
KPUJ - Atlanta/Paulding, Georgia, USA
Distance from station: SW 34mi, 55km
Updated: Sat, 16-Dec-2017 8:55pm EST
Clear
Clear
 Wind from calm
Wind: Calm
Temperature: 43°F , 6°C
Dew Point: 32°F , 0°C
Humidity: 66%
Barometer: 30.26 inHg , 1024.7 hPa
Clouds: Clear
Visibility: 10 miles , 16 km
2017/12/17 01:55 KPUJ 170155Z AUTO 00000KT 10SM CLR 06/00 A3026 RMK AO2
KDNN - Dalton, Georgia, USA
Distance from station: NW 37mi, 59km
Updated: Sat, 16-Dec-2017 8:55pm EST
Clear
Clear
 Wind from calm
Wind: Calm
Temperature: 32°F , 0°C
Dew Point: 30°F , -1°C
Humidity: 93%
Barometer: 30.29 inHg , 1025.7 hPa
Clouds: Clear
Visibility: 10 miles , 16 km
2017/12/17 01:55 KDNN 170155Z AUTO 00000KT 10SM CLR 00/M01 A3029 RMK AO2
KLZU - Lawrenceville, Georgia, USA
Distance from station: ESE 37mi, 59km
Updated: Sat, 16-Dec-2017 8:56pm EST
Clear
Clear
 Wind from calm
Wind: Calm
Temperature: 36°F , 2°C
Dew Point: 28°F , -2°C
Humidity: 75%
Barometer: 30.26 inHg , 1024.7 hPa
Clouds: Clear
Visibility: 10 miles , 16 km
2017/12/17 01:56 KLZU 170156Z AUTO 00000KT 10SM CLR 02/M02 A3026 RMK AO2 SLP266 T00171022 FZRANO
 
KRMG - Rome, Georgia, USA
Distance from station: W 38mi, 61km
Updated: Sat, 16-Dec-2017 8:53pm EST
Clear
Clear
 Wind from calm
Wind: Calm
Temperature: 34°F , 1°C
Dew Point: 30°F , -1°C
Humidity: 87%
Barometer: 30.26 inHg , 1024.7 hPa
Clouds: Clear
Visibility: 10 miles , 16 km
2017/12/17 01:53 KRMG 170153Z AUTO 00000KT 10SM CLR 01/M01 A3026 RMK AO2 SLP251 T00061011
KGVL - Gainesville, Georgia, USA
Distance from station: E 39mi, 62km
Updated: Sat, 16-Dec-2017 8:53pm EST
Clear
Clear
 Wind from W
Wind: W 5 mph , 7 km/h
Temperature: 39°F , 4°C
Wind Chill: 35°F , 2°C
Dew Point: 28°F , -2°C
Humidity: 65%
Barometer: 30.27 inHg , 1025.1 hPa
Clouds: Clear
Visibility: 10 miles , 16 km
2017/12/17 01:53 KGVL 170153Z AUTO 26004KT 10SM CLR 04/M02 A3027 RMK AO2 SLP255 T00441022
KATL - Atlanta, Georgia, USA
Distance from station: S 44mi, 71km
Updated: Sat, 16-Dec-2017 8:52pm EST
Partly cloudy
Partly cloudy
 Wind from calm
Wind: Calm
Temperature: 39°F , 4°C
Dew Point: 30°F , -1°C
Humidity: 70%
Barometer: 30.26 inHg , 1024.7 hPa
Clouds: Partly cloudy
Visibility: 10 miles , 16 km
Cloud details: Few Clouds 20000 ft
Partly cloudy 25000 ft
2017/12/17 01:52 KATL 170152Z 00000KT 10SM FEW200 SCT250 04/M01 A3026 RMK AO2 SLP255 T00441011